createdAt,value
2023-01-07T00:01:42.551Z,10.46
2023-01-07T00:04:14.207Z,10.46
2023-01-07T00:06:43.370Z,10.57
2023-01-07T00:09:16.573Z,10.41
2023-01-07T00:11:44.507Z,10.49
2023-01-07T00:14:13.945Z,10.50
2023-01-07T00:16:42.525Z,10.52
2023-01-07T00:19:14.425Z,10.49
2023-01-07T00:21:43.027Z,10.43
2023-01-07T00:24:13.444Z,10.44
2023-01-07T00:26:43.062Z,10.46
2023-01-07T00:29:11.795Z,10.30
2023-01-07T00:31:42.130Z,10.34
2023-01-07T00:34:10.215Z,10.26
2023-01-07T00:36:52.257Z,10.29
2023-01-07T00:39:23.937Z,10.36
2023-01-07T00:42:09.378Z,10.45
2023-01-07T00:44:37.778Z,10.37
2023-01-07T00:47:05.623Z,10.38
2023-01-07T00:49:33.140Z,10.37
2023-01-07T00:52:00.707Z,10.36
2023-01-07T00:54:28.285Z,10.37
2023-01-07T00:56:55.824Z,10.32
2023-01-07T00:59:23.318Z,10.29
2023-01-07T01:01:50.965Z,10.38
2023-01-07T01:04:18.546Z,10.34
2023-01-07T01:06:46.063Z,10.29
2023-01-07T01:09:13.635Z,10.20
2023-01-07T01:11:41.866Z,10.22
2023-01-07T01:14:11.788Z,10.28
2023-01-07T01:16:39.423Z,10.15
2023-01-07T01:19:06.997Z,10.16
2023-01-07T01:21:34.596Z,10.13
2023-01-07T01:24:02.159Z,10.14
2023-01-07T01:26:29.742Z,10.19
2023-01-07T01:28:57.476Z,10.18
2023-01-07T01:31:25.071Z,10.16
2023-01-07T01:33:56.879Z,10.15
2023-01-07T01:36:24.955Z,10.12
2023-01-07T01:38:52.574Z,10.11
2023-01-07T01:41:20.592Z,10.06
2023-01-07T01:43:48.446Z,10.04
2023-01-07T01:46:17.866Z,10.08
2023-01-07T01:48:56.569Z,10.06
2023-01-07T01:51:28.511Z,10.01
2023-01-07T01:53:57.150Z,10.01
2023-01-07T01:56:36.776Z,10.07
2023-01-07T01:59:11.754Z,9.93
2023-01-07T02:01:39.594Z,9.92
2023-01-07T02:04:12.861Z,9.89
2023-01-07T02:06:47.818Z,9.90
2023-01-07T02:09:15.384Z,9.98
2023-01-07T02:12:09.794Z,9.86
2023-01-07T02:14:54.987Z,9.84
2023-01-07T02:17:50.262Z,9.94
2023-01-07T02:20:45.855Z,9.97
2023-01-07T02:23:25.530Z,9.94
2023-01-07T02:26:17.751Z,9.98
2023-01-07T02:29:10.805Z,9.89
2023-01-07T02:31:53.328Z,9.88
2023-01-07T02:34:28.947Z,9.85
2023-01-07T02:37:22.356Z,9.79
2023-01-07T02:40:02.212Z,9.71
2023-01-07T02:43:28.409Z,9.74
2023-01-07T02:45:55.975Z,9.78
2023-01-07T02:48:23.902Z,9.72
2023-01-07T02:50:51.403Z,9.72
2023-01-07T02:53:20.975Z,9.72
2023-01-07T02:55:48.427Z,9.69
2023-01-07T02:58:24.847Z,9.67
2023-01-07T03:01:22.612Z,9.67
2023-01-07T03:04:21.257Z,9.66
2023-01-07T03:07:04.032Z,9.62
2023-01-07T03:10:01.480Z,9.62
2023-01-07T03:12:46.233Z,9.60
2023-01-07T03:15:40.368Z,9.62
2023-01-07T03:18:20.507Z,9.58
2023-01-07T03:20:54.589Z,9.61
2023-01-07T03:23:26.220Z,9.51
2023-01-07T03:25:55.883Z,9.54
2023-01-07T03:28:28.645Z,9.51
2023-01-07T03:30:59.470Z,9.41
2023-01-07T03:33:54.109Z,9.45
2023-01-07T03:36:28.715Z,9.39
2023-01-07T03:38:57.688Z,9.28
2023-01-07T03:41:43.434Z,9.28
2023-01-07T03:44:10.974Z,9.20
2023-01-07T03:46:38.748Z,9.20
2023-01-07T03:49:06.321Z,9.13
2023-01-07T03:51:33.795Z,9.09
2023-01-07T03:54:01.383Z,9.05
2023-01-07T03:56:28.991Z,9.09
2023-01-07T03:58:56.558Z,9.07
2023-01-07T04:01:24.089Z,9.06
2023-01-07T04:03:51.682Z,9.07
2023-01-07T04:06:19.250Z,9.09
2023-01-07T04:08:46.970Z,9.13
2023-01-07T04:11:14.494Z,9.09
2023-01-07T04:13:41.973Z,9.09
2023-01-07T04:16:09.614Z,9.09
2023-01-07T04:18:37.184Z,9.14
2023-01-07T04:21:05.104Z,9.13
2023-01-07T04:23:32.701Z,9.08
2023-01-07T04:26:00.251Z,8.93
2023-01-07T04:28:27.921Z,9.11
2023-01-07T04:30:55.558Z,9.08
2023-01-07T04:33:23.132Z,9.07
2023-01-07T04:35:50.632Z,9.05
2023-01-07T04:38:18.242Z,9.04
2023-01-07T04:40:46.147Z,9.12
2023-01-07T04:43:13.669Z,9.16
2023-01-07T04:45:41.232Z,9.20
2023-01-07T04:48:08.890Z,9.23
2023-01-07T04:50:36.410Z,9.21
2023-01-07T04:53:03.986Z,9.14
2023-01-07T04:55:31.515Z,9.21
2023-01-07T04:57:59.050Z,9.20
2023-01-07T05:00:27.401Z,9.23
2023-01-07T05:02:54.935Z,9.25
2023-01-07T05:05:23.119Z,9.27
2023-01-07T05:07:50.674Z,9.32
2023-01-07T05:10:18.362Z,9.26
2023-01-07T05:12:45.835Z,9.29
2023-01-07T05:15:13.614Z,9.36
2023-01-07T05:17:41.571Z,9.39
2023-01-07T05:20:09.792Z,9.43
2023-01-07T05:22:37.461Z,9.37
2023-01-07T05:25:05.237Z,9.39
2023-01-07T05:27:32.895Z,9.37
2023-01-07T05:30:00.405Z,9.38
2023-01-07T05:32:27.910Z,9.40
2023-01-07T05:34:55.428Z,9.38
2023-01-07T05:37:23.007Z,9.39
2023-01-07T05:39:50.568Z,9.38
2023-01-07T05:42:18.110Z,9.38
2023-01-07T05:44:45.585Z,9.37
2023-01-07T05:47:13.232Z,9.32
2023-01-07T05:49:40.745Z,9.32
2023-01-07T05:52:08.257Z,9.32
2023-01-07T05:54:35.797Z,9.32
2023-01-07T05:57:03.303Z,9.27
2023-01-07T05:59:30.841Z,9.22
2023-01-07T06:01:58.480Z,9.19
2023-01-07T06:04:26.496Z,9.24
2023-01-07T06:06:54.190Z,9.19
2023-01-07T06:09:22.346Z,9.20
2023-01-07T06:11:50.034Z,9.24
2023-01-07T06:14:17.684Z,9.26
2023-01-07T06:16:45.222Z,9.23
2023-01-07T06:19:12.917Z,9.27
2023-01-07T06:21:40.476Z,9.27
2023-01-07T06:24:08.575Z,9.29
2023-01-07T06:26:36.128Z,9.32
2023-01-07T06:29:03.651Z,9.34
2023-01-07T06:31:31.183Z,9.34
2023-01-07T06:33:58.773Z,9.30
2023-01-07T06:36:26.247Z,9.20
2023-01-07T06:38:53.710Z,9.20
2023-01-07T06:41:21.231Z,9.22
2023-01-07T06:43:48.755Z,9.17
2023-01-07T06:46:16.476Z,9.17
2023-01-07T06:48:43.979Z,9.13
2023-01-07T06:51:11.614Z,9.15
2023-01-07T06:53:39.222Z,9.14
2023-01-07T06:56:07.033Z,9.11
2023-01-07T06:58:34.619Z,9.07
2023-01-07T07:01:09.677Z,9.11
2023-01-07T07:03:37.251Z,9.11
2023-01-07T07:06:05.745Z,9.13
2023-01-07T07:08:33.310Z,9.01
2023-01-07T07:11:00.878Z,8.97
2023-01-07T07:13:28.338Z,8.99
2023-01-07T07:15:55.901Z,8.97
2023-01-07T07:18:23.428Z,9.00
2023-01-07T07:20:51.070Z,8.95
2023-01-07T07:23:18.569Z,9.06
2023-01-07T07:25:46.075Z,9.04
2023-01-07T07:28:13.551Z,9.10
2023-01-07T07:30:51.121Z,9.13
2023-01-07T07:33:19.908Z,9.16
2023-01-07T07:35:47.777Z,9.27
2023-01-07T07:38:17.654Z,9.30
2023-01-07T07:40:45.200Z,9.30
2023-01-07T07:43:13.243Z,9.29
2023-01-07T07:45:42.384Z,9.26
2023-01-07T07:48:11.285Z,9.33
2023-01-07T07:50:39.003Z,9.39
2023-01-07T07:53:09.950Z,9.40
2023-01-07T07:55:38.966Z,9.44
2023-01-07T07:58:07.184Z,9.46
2023-01-07T08:00:34.887Z,9.45
2023-01-07T08:03:02.447Z,9.41
2023-01-07T08:05:30.031Z,9.49
2023-01-07T08:07:58.123Z,9.49
2023-01-07T08:10:30.070Z,9.34
2023-01-07T08:12:57.699Z,9.43
2023-01-07T08:15:25.323Z,9.41
2023-01-07T08:18:02.104Z,9.46
2023-01-07T08:20:30.235Z,9.49
2023-01-07T08:23:02.472Z,9.48
2023-01-07T08:25:32.297Z,9.52
2023-01-07T08:28:01.522Z,9.53
2023-01-07T08:30:30.792Z,9.56
2023-01-07T08:32:58.738Z,9.54
2023-01-07T08:35:26.312Z,9.56
2023-01-07T08:37:54.298Z,9.58
2023-01-07T08:40:21.817Z,9.63
2023-01-07T08:42:49.414Z,9.64
2023-01-07T08:45:16.947Z,9.65
2023-01-07T08:47:48.461Z,9.66
2023-01-07T08:50:15.980Z,9.64
2023-01-07T08:52:46.816Z,9.74
2023-01-07T08:55:14.469Z,9.69
2023-01-07T08:57:41.979Z,9.66
2023-01-07T09:00:10.060Z,9.71
2023-01-07T09:02:37.725Z,9.69
2023-01-07T09:05:06.023Z,9.71
2023-01-07T09:07:33.521Z,9.75
2023-01-07T09:10:01.415Z,9.80
2023-01-07T09:12:29.027Z,9.82
2023-01-07T09:14:56.799Z,9.88
2023-01-07T09:17:24.482Z,9.95
2023-01-07T09:19:52.011Z,9.90
2023-01-07T09:22:19.543Z,9.89
2023-01-07T09:24:47.984Z,9.92
2023-01-07T09:27:16.640Z,9.94
2023-01-07T09:29:44.394Z,10.02
2023-01-07T09:32:11.911Z,9.98
2023-01-07T09:34:39.448Z,10.01
2023-01-07T09:37:07.942Z,9.89
2023-01-07T09:39:35.467Z,9.93
2023-01-07T09:42:10.761Z,10.01
2023-01-07T09:45:03.850Z,10.07
2023-01-07T09:47:36.847Z,10.18
2023-01-07T09:50:15.947Z,10.15
2023-01-07T09:52:50.195Z,10.17
2023-01-07T09:55:26.820Z,10.14
2023-01-07T09:57:54.492Z,10.19
2023-01-07T10:00:24.950Z,10.24
2023-01-07T10:03:07.990Z,10.29
2023-01-07T10:05:45.298Z,10.28
2023-01-07T10:08:32.027Z,10.24
2023-01-07T10:11:18.636Z,10.29
2023-01-07T10:13:56.755Z,10.34
2023-01-07T10:16:39.673Z,10.31
2023-01-07T10:19:28.311Z,10.30
2023-01-07T10:22:05.621Z,10.35
2023-01-07T10:24:42.139Z,10.33
2023-01-07T10:27:14.746Z,10.31
2023-01-07T10:29:53.751Z,10.32
2023-01-07T10:32:24.168Z,10.45
2023-01-07T10:34:54.473Z,10.43
2023-01-07T10:37:35.928Z,10.53
2023-01-07T10:40:11.810Z,10.49
2023-01-07T10:43:02.317Z,10.45
2023-01-07T10:45:42.183Z,10.59
2023-01-07T10:48:49.412Z,10.62
2023-01-07T10:51:31.037Z,10.66
2023-01-07T10:54:16.272Z,10.74
2023-01-07T10:56:47.625Z,10.81
2023-01-07T10:59:18.160Z,10.77
2023-01-07T11:01:52.553Z,10.76
2023-01-07T11:04:20.573Z,10.79
2023-01-07T11:07:04.042Z,10.77
2023-01-07T11:09:37.971Z,10.70
2023-01-07T11:12:18.505Z,10.75
2023-01-07T11:14:47.796Z,10.81
2023-01-07T11:17:32.683Z,10.80
2023-01-07T11:20:04.437Z,10.79
2023-01-07T11:22:35.164Z,10.88
2023-01-07T11:25:24.228Z,10.87
2023-01-07T11:27:51.813Z,10.83
2023-01-07T11:30:33.913Z,11.03
2023-01-07T11:33:04.921Z,11.07
2023-01-07T11:35:32.689Z,11.09
2023-01-07T11:38:01.398Z,11.29
2023-01-07T11:40:31.536Z,11.22
2023-01-07T11:43:19.278Z,11.13
2023-01-07T11:46:19.322Z,11.29
2023-01-07T11:49:00.878Z,11.38
2023-01-07T11:51:40.904Z,11.46
2023-01-07T11:54:21.575Z,11.43
2023-01-07T11:56:49.417Z,11.43
2023-01-07T11:59:28.914Z,11.54
2023-01-07T12:02:00.250Z,11.42
2023-01-07T12:04:29.858Z,11.47
2023-01-07T12:07:00.937Z,11.44
2023-01-07T12:09:34.523Z,11.31
2023-01-07T12:12:28.240Z,11.23
2023-01-07T12:14:56.576Z,11.03
2023-01-07T12:17:26.321Z,11.02
2023-01-07T12:20:33.114Z,11.01
2023-01-07T12:23:29.035Z,10.87
2023-01-07T12:26:17.381Z,10.81
2023-01-07T12:28:52.136Z,10.78
2023-01-07T12:31:41.610Z,10.76
2023-01-07T12:34:28.499Z,10.82
2023-01-07T12:37:00.735Z,10.78
2023-01-07T12:39:34.295Z,10.91
2023-01-07T12:42:19.825Z,10.87
2023-01-07T12:44:53.330Z,10.96
2023-01-07T12:47:31.249Z,10.93
2023-01-07T12:50:37.169Z,10.88
2023-01-07T12:53:05.393Z,10.85
2023-01-07T12:55:41.068Z,10.86
2023-01-07T12:58:27.258Z,10.89
2023-01-07T13:01:24.511Z,10.92
2023-01-07T13:03:58.137Z,10.91
2023-01-07T13:06:34.514Z,10.89
2023-01-07T13:09:16.225Z,10.96
2023-01-07T13:12:06.976Z,10.93
2023-01-07T13:14:58.790Z,10.83
2023-01-07T13:17:32.371Z,10.84
2023-01-07T13:19:59.908Z,10.87
2023-01-07T13:22:39.893Z,10.89
2023-01-07T13:25:38.320Z,10.82
2023-01-07T13:28:08.689Z,10.81
2023-01-07T13:31:07.190Z,10.78
2023-01-07T13:34:01.979Z,10.84
2023-01-07T13:36:29.492Z,10.81
2023-01-07T13:39:29.822Z,10.84
2023-01-07T13:42:08.344Z,10.85
2023-01-07T13:45:14.916Z,10.98
2023-01-07T13:47:47.057Z,10.92
2023-01-07T13:50:34.746Z,11.07
2023-01-07T13:53:08.377Z,11.05
2023-01-07T13:55:43.685Z,11.06
2023-01-07T13:58:30.134Z,10.98
2023-01-07T14:01:11.311Z,11.06
2023-01-07T14:03:49.683Z,10.90
2023-01-07T14:06:20.094Z,10.92
2023-01-07T14:08:56.376Z,10.77
2023-01-07T14:12:00.031Z,10.86
2023-01-07T14:14:42.381Z,10.76
2023-01-07T14:17:28.513Z,10.72
2023-01-07T14:20:17.676Z,10.71
2023-01-07T14:23:00.984Z,10.72
2023-01-07T14:25:47.160Z,10.66
2023-01-07T14:28:14.597Z,10.66
2023-01-07T14:30:48.201Z,10.62
2023-01-07T14:33:22.775Z,10.51
2023-01-07T14:36:16.288Z,10.59
2023-01-07T14:38:43.824Z,10.58
2023-01-07T14:41:20.417Z,10.57
2023-01-07T14:43:50.607Z,10.55
2023-01-07T14:46:23.984Z,10.52
2023-01-07T14:49:31.070Z,10.61
2023-01-07T14:52:17.553Z,10.48
2023-01-07T14:55:22.568Z,10.52
2023-01-07T14:57:59.076Z,10.49
2023-01-07T15:00:51.212Z,10.49
2023-01-07T15:04:06.695Z,10.52
2023-01-07T15:06:41.857Z,10.52
2023-01-07T15:09:39.247Z,10.48
2023-01-07T15:12:32.715Z,10.50
2023-01-07T15:15:40.532Z,10.46
2023-01-07T15:18:12.838Z,10.51
2023-01-07T15:21:00.521Z,10.48
2023-01-07T15:23:36.012Z,10.48
2023-01-07T15:26:17.402Z,10.42
2023-01-07T15:28:52.490Z,10.43
2023-01-07T15:31:24.023Z,10.45
2023-01-07T15:34:12.156Z,10.40
2023-01-07T15:36:43.021Z,10.45
2023-01-07T15:39:25.920Z,10.34
2023-01-07T15:41:55.611Z,10.26
2023-01-07T15:44:29.511Z,10.26
2023-01-07T15:46:57.323Z,10.34
2023-01-07T15:49:29.539Z,10.31
2023-01-07T15:52:01.992Z,10.31
2023-01-07T15:54:35.061Z,10.40
2023-01-07T15:57:03.657Z,10.14
2023-01-07T15:59:34.370Z,10.18
2023-01-07T16:02:22.133Z,10.06
2023-01-07T16:04:52.932Z,10.08
2023-01-07T16:07:24.844Z,10.05
2023-01-07T16:09:53.444Z,10.01
2023-01-07T16:12:35.156Z,10.01
2023-01-07T16:15:21.015Z,9.99
2023-01-07T16:17:53.420Z,10.10
2023-01-07T16:20:29.391Z,9.99
2023-01-07T16:23:18.740Z,9.86
2023-01-07T16:26:21.577Z,10.06
2023-01-07T16:28:52.370Z,10.06
2023-01-07T16:31:23.485Z,10.08
2023-01-07T16:33:53.693Z,9.94
2023-01-07T16:36:40.834Z,9.96
2023-01-07T16:39:27.180Z,9.94
2023-01-07T16:42:15.007Z,9.76
2023-01-07T16:44:45.665Z,9.84
2023-01-07T16:47:16.356Z,9.83
2023-01-07T16:49:43.919Z,9.82
2023-01-07T16:52:18.063Z,9.80
2023-01-07T16:54:51.955Z,9.86
2023-01-07T16:57:30.909Z,9.75
2023-01-07T17:00:01.787Z,9.73
2023-01-07T17:02:34.335Z,9.61
2023-01-07T17:05:22.202Z,9.62
2023-01-07T17:07:59.145Z,9.51
2023-01-07T17:10:31.346Z,9.40
2023-01-07T17:13:00.596Z,9.21
2023-01-07T17:15:33.799Z,9.14
2023-01-07T17:18:13.287Z,9.07
2023-01-07T17:20:54.630Z,9.05
2023-01-07T17:23:28.419Z,9.12
2023-01-07T17:26:03.998Z,9.03
2023-01-07T17:28:34.666Z,9.03
2023-01-07T17:31:02.485Z,9.08
2023-01-07T17:33:30.453Z,9.06
2023-01-07T17:35:58.006Z,9.05
2023-01-07T17:38:25.570Z,9.05
2023-01-07T17:40:54.493Z,9.13
2023-01-07T17:43:35.076Z,9.21
2023-01-07T17:46:12.857Z,9.15
2023-01-07T17:48:40.691Z,9.16
2023-01-07T17:51:08.659Z,9.16
2023-01-07T17:53:45.391Z,8.96
2023-01-07T17:56:13.651Z,9.21
2023-01-07T17:58:42.173Z,9.09
2023-01-07T18:01:12.774Z,9.06
2023-01-07T18:03:40.662Z,8.99
2023-01-07T18:06:22.953Z,8.97
2023-01-07T18:08:52.370Z,8.93
2023-01-07T18:11:40.199Z,8.96
2023-01-07T18:14:08.273Z,8.94
2023-01-07T18:16:35.928Z,8.87
2023-01-07T18:19:03.485Z,8.97
2023-01-07T18:21:30.999Z,8.99
2023-01-07T18:23:58.571Z,8.99
2023-01-07T18:26:26.197Z,9.03
2023-01-07T18:28:53.744Z,9.05
2023-01-07T18:31:21.888Z,9.03
2023-01-07T18:33:50.595Z,9.01
2023-01-07T18:36:18.187Z,9.05
2023-01-07T18:38:45.727Z,8.98
2023-01-07T18:41:13.265Z,8.96
2023-01-07T18:43:40.899Z,8.90
2023-01-07T18:46:10.175Z,8.89
2023-01-07T18:48:38.986Z,8.88
2023-01-07T18:51:13.179Z,8.88
2023-01-07T18:53:40.773Z,8.94
2023-01-07T18:56:11.616Z,8.91
2023-01-07T18:58:40.899Z,8.87
2023-01-07T19:01:10.623Z,8.91
2023-01-07T19:03:38.568Z,8.95
2023-01-07T19:06:08.512Z,9.00
2023-01-07T19:08:36.479Z,9.05
2023-01-07T19:11:14.747Z,9.03
2023-01-07T19:13:42.619Z,8.99
2023-01-07T19:16:12.851Z,9.09
2023-01-07T19:18:41.148Z,8.95
2023-01-07T19:21:12.806Z,9.04
2023-01-07T19:23:42.229Z,9.12
2023-01-07T19:26:12.145Z,9.10
2023-01-07T19:28:39.710Z,9.12
2023-01-07T19:31:09.470Z,9.20
2023-01-07T19:33:39.431Z,9.29
2023-01-07T19:36:10.071Z,9.27
2023-01-07T19:38:42.646Z,9.29
2023-01-07T19:41:11.888Z,9.38
2023-01-07T19:43:39.976Z,9.42
2023-01-07T19:46:09.153Z,9.38
2023-01-07T19:48:36.847Z,9.45
2023-01-07T19:51:06.186Z,9.51
2023-01-07T19:53:35.146Z,9.42
2023-01-07T19:56:05.584Z,9.48
2023-01-07T19:58:33.588Z,9.45
2023-01-07T20:01:12.876Z,9.43
2023-01-07T20:03:41.543Z,9.45
2023-01-07T20:06:12.842Z,9.45
2023-01-07T20:08:40.919Z,9.47
2023-01-07T20:11:08.942Z,9.47
2023-01-07T20:13:37.782Z,9.51
2023-01-07T20:16:13.852Z,9.52
2023-01-07T20:18:44.180Z,9.55
2023-01-07T20:21:13.181Z,9.54
2023-01-07T20:23:42.391Z,9.54
2023-01-07T20:26:12.893Z,9.53
2023-01-07T20:28:40.495Z,9.67
2023-01-07T20:31:11.962Z,9.61
2023-01-07T20:33:39.929Z,9.50
2023-01-07T20:36:15.090Z,9.47
2023-01-07T20:38:43.391Z,9.43
2023-01-07T20:41:14.329Z,9.40
2023-01-07T20:43:41.888Z,9.41
2023-01-07T20:46:10.172Z,9.38
2023-01-07T20:48:37.929Z,9.45
2023-01-07T20:51:07.892Z,9.37
2023-01-07T20:53:37.200Z,9.46
2023-01-07T20:56:05.953Z,9.46
2023-01-07T20:58:35.842Z,9.47
2023-01-07T21:01:05.376Z,9.42
2023-01-07T21:03:33.316Z,9.48
2023-01-07T21:06:01.290Z,9.53
2023-01-07T21:08:29.172Z,9.59
2023-01-07T21:10:57.174Z,9.58
2023-01-07T21:13:24.997Z,9.52
2023-01-07T21:15:52.892Z,9.42
2023-01-07T21:18:20.709Z,9.49
2023-01-07T21:20:48.583Z,9.42
2023-01-07T21:23:16.132Z,9.46
2023-01-07T21:25:48.412Z,9.58
2023-01-07T21:28:16.089Z,9.61
2023-01-07T21:30:44.289Z,9.62
2023-01-07T21:33:12.645Z,9.59
2023-01-07T21:35:41.784Z,9.56
2023-01-07T21:38:09.394Z,9.62
2023-01-07T21:40:39.360Z,9.64
2023-01-07T21:43:07.065Z,9.64
2023-01-07T21:45:35.190Z,9.64
2023-01-07T21:48:02.889Z,9.63
2023-01-07T21:50:30.412Z,9.61
2023-01-07T21:52:58.379Z,9.53
2023-01-07T21:55:28.909Z,9.55
2023-01-07T21:57:56.538Z,9.60
2023-01-07T22:00:24.007Z,9.54
2023-01-07T22:02:51.514Z,9.54
2023-01-07T22:05:18.982Z,9.53
2023-01-07T22:07:46.550Z,9.52
2023-01-07T22:10:14.056Z,9.56
2023-01-07T22:12:41.545Z,9.52
2023-01-07T22:15:09.423Z,9.60
2023-01-07T22:17:36.908Z,9.54
2023-01-07T22:20:04.771Z,9.51
2023-01-07T22:22:32.299Z,9.54
2023-01-07T22:24:59.812Z,9.63
2023-01-07T22:27:27.263Z,9.72
2023-01-07T22:29:55.459Z,9.73
2023-01-07T22:32:23.056Z,9.74
2023-01-07T22:34:50.611Z,9.81
2023-01-07T22:37:21.957Z,9.84
2023-01-07T22:39:56.897Z,9.86
2023-01-07T22:42:47.487Z,9.80
2023-01-07T22:45:19.239Z,9.86
2023-01-07T22:47:51.044Z,9.90
2023-01-07T22:50:19.538Z,9.84
2023-01-07T22:52:47.690Z,9.92
2023-01-07T22:55:15.331Z,9.95
2023-01-07T22:57:42.951Z,9.97
2023-01-07T23:00:18.466Z,10.02
2023-01-07T23:02:45.998Z,9.92
2023-01-07T23:05:13.486Z,9.95
2023-01-07T23:07:40.952Z,10.00
2023-01-07T23:10:08.687Z,9.99
2023-01-07T23:12:36.264Z,9.98
2023-01-07T23:15:03.830Z,10.00
2023-01-07T23:17:31.359Z,9.90
2023-01-07T23:19:58.963Z,9.80
2023-01-07T23:22:26.590Z,9.71
2023-01-07T23:24:54.072Z,9.47
2023-01-07T23:27:21.591Z,9.00
2023-01-07T23:29:49.215Z,8.96
2023-01-07T23:32:16.799Z,8.76
2023-01-07T23:34:44.298Z,8.57
2023-01-07T23:37:12.032Z,8.54
2023-01-07T23:39:39.556Z,8.44
2023-01-07T23:42:07.089Z,8.28
2023-01-07T23:44:34.660Z,8.28
2023-01-07T23:47:02.205Z,8.34
2023-01-07T23:49:29.674Z,8.25
2023-01-07T23:51:57.176Z,8.23
2023-01-07T23:54:24.882Z,8.07
2023-01-07T23:56:52.546Z,8.08
2023-01-07T23:59:20.079Z,7.99
